Flight Track Log - Related Links

Times and Time Zones

All times are in EST time to prevent confusion due to time zone crossing. See the UAL33 flight status page for this flight to view local times or setup timezone preferences in your user account.


Time Position Orientation Groundspeed Altitude Reporting Facility
EST Latitude Longitude Course Direction KTS MPH feet Rate Location/Type
Sun 04:45:34 AM 35.7830 140.3620 329° Northwest 166 191 2,000  Level FlightAware ADS-B
Sun 04:46:14 AM 35.8100 140.3420 329° Northwest 180 207 3,300 1,725 Climbing FlightAware ADS-B
Sun 04:46:54 AM 35.8400 140.3200 329° Northwest 210 242 4,300 1,417 Climbing FlightAware ADS-B
Sun 04:47:26 AM 35.8710 140.2980 330° Northwest 255 293 5,000 1,667 Climbing FlightAware ADS-B
Sun 04:47:48 AM 35.8970 140.2870 341° North 277 319 5,800 1,917 Climbing FlightAware ADS-B
Sun 04:48:38 AM 35.9440 140.3370 41° Northeast 305 351 7,300 1,692 Climbing FlightAware ADS-B
Sun 04:49:06 AM 35.9380 140.3830 99° East 302 348 8,000 2,156 Climbing FlightAware ADS-B
Sun 04:49:42 AM 35.9190 140.4440 111° Southeast 311 358 9,600 2,289 Climbing FlightAware ADS-B
Sun 04:50:22 AM 35.8840 140.5000 128° Southeast 330 380 10,900 1,658 Climbing FlightAware ADS-B
Sun 04:50:58 AM 35.8470 140.5570 129° Southeast 369 425 11,700 1,562 Climbing FlightAware ADS-B
Sun 04:51:35 AM 35.8060 140.6200 129° Southeast 397 457 12,800 2,270 Climbing FlightAware ADS-B
Sun 04:52:12 AM 35.7740 140.6970 117° Southeast 417 480 14,500 1,630 Climbing FlightAware ADS-B
Sun 04:52:56 AM 35.7720 140.7980 91° East 430 495 15,000 480 Climbing FlightAware ADS-B
Sun 04:53:27 AM 35.7800 140.8730 82° East 429 494 15,100 1,059 Climbing FlightAware ADS-B
Sun 04:54:04 AM 35.7890 140.9620 83° East 440 506 16,200 1,899 Climbing FlightAware ADS-B
Sun 04:54:46 AM 35.8000 141.0690 83° East 458 527 17,600 2,000 Climbing FlightAware ADS-B
Sun 04:55:28 AM 35.8120 141.1730 82° East 471 542 19,000 1,929 Climbing FlightAware ADS-B
Sun 04:56:10 AM 35.8250 141.2830 82° East 484 557 20,300 1,952 Climbing FlightAware ADS-B
Sun 04:56:51 AM 35.8520 141.4020 74° East 496 571 21,700 1,939 Climbing FlightAware ADS-B
Sun 04:57:49 AM 35.8920 141.5560 72° East 512 589 23,500 2,298 Climbing FlightAware ADS-B
Sun 04:58:25 AM 35.9210 141.6600 71° East 501 577 25,300 2,597 Climbing FlightAware ADS-B
Sun 04:58:56 AM 35.9460 141.7470 70° East 500 575 26,400 2,222 Climbing FlightAware ADS-B
Sun 04:59:46 AM 35.9990 141.8780 63° Northeast 495 570 28,300 2,077 Climbing FlightAware ADS-B
Sun 05:00:14 AM 36.0300 141.9430 59° Northeast 497 572 29,100 1,652 Climbing FlightAware ADS-B
Sun 05:00:55 AM 36.0770 142.0470 61° Northeast 499 574 30,200 1,185 Climbing FlightAware ADS-B
Sun 05:01:35 AM 36.1210 142.1450 61° Northeast 515 593 30,700 845 Climbing FlightAware ADS-B
Sun 05:02:06 AM 36.1520 142.2150 61° Northeast 520 598 31,200 1,200 Climbing FlightAware ADS-B
Sun 05:02:35 AM 36.1870 142.2960 62° Northeast 522 601 31,900 1,406 Climbing FlightAware ADS-B
Sun 05:03:10 AM 36.2200 142.3980 68° East 528 608 32,700 1,214 Climbing FlightAware ADS-B
Sun 05:03:59 AM 36.2640 142.5360 68° East 530 610 33,600 1,125 Climbing FlightAware ADS-B
Sun 05:04:30 AM 36.2930 142.6280 69° East 532 612 34,200 1,250 Climbing FlightAware ADS-B
Sun 05:05:11 AM 36.3290 142.7420 69° East 526 605 35,100 1,120 Climbing FlightAware ADS-B
Sun 05:05:45 AM 36.3590 142.8390 69° East 530 610 35,600 771 Climbing FlightAware ADS-B
Sun 05:06:21 AM 36.3900 142.9390 69° East 534 615 36,000 429 Climbing FlightAware ADS-B
Sun 05:06:55 AM 36.4210 143.0390 69° East 543 625 36,100 288 Climbing FlightAware ADS-B
Sun 05:08:05 AM 36.4850 143.2440 69° East 555 639 36,500 453 Climbing FlightAware ADS-B
Sun 05:08:41 AM 36.5170 143.3520 70° East 556 640 36,900 560 Climbing FlightAware ADS-B
Sun 05:09:20 AM 36.5540 143.4720 69° East 564 649 37,200 675 Climbing FlightAware ADS-B
Sun 05:10:01 AM 36.5900 143.5900 69° East 563 648 37,800 600 Climbing FlightAware ADS-B
Sun 05:10:40 AM 36.6280 143.7140 69° East 563 648 38,000 171 Climbing FlightAware ADS-B
Sun 05:11:11 AM 36.6550 143.8050 70° East 561 646 38,000  Level FlightAware ADS-B
Sun 05:11:30 AM 36.6730 143.8630 69° East 561 646 38,000  Level FlightAware ADS-B
Sun 05:12:27 AM 36.7180 144.0140 70° East 558 642 38,000  Level FlightAware ADS-B
Sun 05:13:10 AM 36.7610 144.1590 70° East 555 639 38,000  Level FlightAware ADS-B
Sun 05:13:46 AM 36.7950 144.2720 69° East 554 638 38,000  Level FlightAware ADS-B
Sun 05:14:31 AM 36.8340 144.4070 70° East 553 636 38,000  Level FlightAware ADS-B
Sun 05:15:41 AM 36.8960 144.6170 70° East 545 627 38,000  Level FlightAware ADS-B
Sun 05:16:31 AM 36.9380 144.7600 70° East 545 627 38,000  Level FlightAware ADS-B
Sun 05:17:01 AM 36.9650 144.8530 70° East 540 621 38,000  Level FlightAware ADS-B
Sun 05:17:46 AM 37.0010 144.9760 70° East 536 617 38,000  Level FlightAware ADS-B
Sun 05:18:23 AM 37.0260 145.0680 71° East 536 617 38,000  Level FlightAware ADS-B
Sun 05:18:59 AM 37.0510 145.1580 71° East 536 617 38,000  Level FlightAware ADS-B
Sun 05:19:27 AM 37.0880 145.2800 69° East 610 702 38,000  Level FlightAware ADS-B
Sun 05:22:00 AM 37.2203 145.6929 43° Northeast  Level FlightAware Approximate
Sun 05:22:04 AM 37.2440 145.7200 43° Northeast 527 606 38,000  Level FlightAware ADS-B
Sun 05:22:19 AM 37.2650 145.7440 42° Northeast 527 606 38,000  Level FlightAware ADS-B
Sun 05:23:01 AM 37.3300 145.8280 46° Northeast 527 606 38,000  Level FlightAware ADS-B
Sun 05:23:38 AM 37.3810 145.9000 48° Northeast 527 606 38,000  Level FlightAware ADS-B
Sun 05:24:09 AM 37.4660 145.9780 36° Northeast 527 606 38,000  Level FlightAware ADS-B
Sun 05:24:54 AM 37.5460 146.0730 43° Northeast 530 610 38,000  Level FlightAware ADS-B
Sun 05:25:29 AM 37.6090 146.1460 43° Northeast 529 609 38,000  Level FlightAware ADS-B
Sun 05:25:44 AM 37.6300 146.1710 43° Northeast 529 609 38,000  Level FlightAware ADS-B
Sun 05:26:35 AM 37.7070 146.2620 43° Northeast 529 609 38,000  Level FlightAware ADS-B
Sun 05:27:45 AM 37.8140 146.3880 43° Northeast 529 609 38,000  Level FlightAware ADS-B
Sun 05:28:45 AM 37.9050 146.4950 43° Northeast 529 609 38,000  Level FlightAware ADS-B
Sun 05:29:21 AM 37.9600 146.5600 43° Northeast 529 609 38,000  Level FlightAware ADS-B
Sun 05:29:57 AM 38.0150 146.6250 43° Northeast 529 609 38,000  Level FlightAware ADS-B
Sun 05:30:31 AM 38.0660 146.6860 43° Northeast 529 609 38,000  Level FlightAware ADS-B
Sun 05:31:09 AM 38.1240 146.7550 43° Northeast 529 609 38,000  Level FlightAware ADS-B
Sun 05:31:45 AM 38.1790 146.8200 43° Northeast 529 609 38,000  Level FlightAware ADS-B
Sun 05:32:21 AM 38.2340 146.8850 43° Northeast 529 609 38,000  Level FlightAware ADS-B
Sun 05:33:21 AM 38.3250 146.9930 43° Northeast 529 609 38,000  Level FlightAware ADS-B
Sun 05:33:57 AM 38.3800 147.0580 43° Northeast 529 609 38,000  Level FlightAware ADS-B
Sun 05:34:33 AM 38.4340 147.1240 44° Northeast 529 609 38,000  Level FlightAware ADS-B
Sun 05:35:33 AM 38.5260 147.2320 43° Northeast 529 609 38,000 22 Level FlightAware ADS-B
Sun 05:38:00 AM 38.7752 147.5398 44° Northeast  Level FlightAware Approximate
Sun 05:39:00 AM 38.8767 147.6660 44° Northeast  Level FlightAware Approximate
Sun 05:40:00 AM 38.9781 147.7927 44° Northeast  Level FlightAware Approximate
Sun 05:41:00 AM 39.0793 147.9196 44° Northeast  Level FlightAware Approximate
Sun 05:42:00 AM 39.1804 148.0470 44° Northeast  Level FlightAware Approximate
Sun 05:43:00 AM 39.2813 148.1747 44° Northeast  Level FlightAware Approximate
Sun 05:44:00 AM 39.3821 148.3027 44° Northeast  Level FlightAware Approximate
Sun 05:45:00 AM 39.4828 148.4312 45° Northeast  Level FlightAware Approximate
Sun 05:46:00 AM 39.5833 148.5600 45° Northeast  Level FlightAware Approximate
Sun 05:47:00 AM 39.6837 148.6892 45° Northeast  Level FlightAware Approximate
Sun 05:48:00 AM 39.7839 148.8188 45° Northeast  Level FlightAware Approximate
Sun 05:49:00 AM 39.8840 148.9487 45° Northeast  Level FlightAware Approximate
Sun 05:50:00 AM 39.9839 149.0790 45° Northeast  Level FlightAware Approximate
Sun 05:51:00 AM 40.0837 149.2097 45° Northeast  Level FlightAware Approximate
Sun 05:52:00 AM 40.1834 149.3408 45° Northeast  Level FlightAware Approximate
Sun 05:53:00 AM 40.2829 149.4723 45° Northeast  Level FlightAware Approximate
Sun 05:54:00 AM 40.3822 149.6041 45° Northeast  Level FlightAware Approximate
Sun 05:55:00 AM 40.4817 149.7356 45° Northeast  Level FlightAware Approximate
Sun 05:56:00 AM 40.5814 149.8674 45° Northeast  Level FlightAware Approximate
Sun 05:57:00 AM 40.6809 149.9996 45° Northeast  Level FlightAware Approximate
Sun 05:58:00 AM 40.7803 150.1322 45° Northeast  Level FlightAware Approximate
Sun 05:59:00 AM 40.8796 150.2651 45° Northeast  Level FlightAware Approximate
Sun 06:00:00 AM 40.9787 150.3985 45° Northeast  Level FlightAware Approximate
Sun 06:01:00 AM 41.0776 150.5323 46° Northeast  Level FlightAware Approximate
Sun 06:02:00 AM 41.1764 150.6664 46° Northeast  Level FlightAware Approximate
Sun 06:03:00 AM 41.2751 150.8010 46° Northeast  Level FlightAware Approximate
Sun 06:04:00 AM 41.3735 150.9360 46° Northeast  Level FlightAware Approximate
Sun 06:05:00 AM 41.4719 151.0714 46° Northeast  Level FlightAware Approximate
Sun 06:06:00 AM 41.5693 151.2081 47° Northeast  Level FlightAware Approximate
Sun 06:07:00 AM 41.6660 151.3460 47° Northeast  Level FlightAware Approximate
Sun 06:08:00 AM 41.7625 151.4843 47° Northeast  Level FlightAware Approximate
Sun 06:09:00 AM 41.8589 151.6230 47° Northeast  Level FlightAware Approximate
Sun 06:10:00 AM 41.9551 151.7621 47° Northeast  Level FlightAware Approximate
Sun 06:11:00 AM 42.0511 151.9016 47° Northeast  Level FlightAware Approximate
Sun 06:12:00 AM 42.1482 152.0401 47° Northeast  Level FlightAware Approximate
Sun 06:13:00 AM 42.2450 152.1790 47° Northeast  Level FlightAware Approximate
Sun 06:14:00 AM 42.3417 152.3184 47° Northeast  Level FlightAware Approximate
Sun 06:15:00 AM 42.4383 152.4581 47° Northeast  Level FlightAware Approximate
Sun 06:16:00 AM 42.5346 152.5983 47° Northeast  Level FlightAware Approximate
Sun 06:17:00 AM 42.6308 152.7390 47° Northeast  Level FlightAware Approximate
Sun 06:18:00 AM 42.7268 152.8801 47° Northeast  Level FlightAware Approximate
Sun 06:19:00 AM 42.8227 153.0216 47° Northeast  Level FlightAware Approximate
Sun 06:20:00 AM 42.9183 153.1635 47° Northeast  Level FlightAware Approximate
Sun 06:21:00 AM 43.0138 153.3059 47° Northeast  Level FlightAware Approximate
Sun 06:22:00 AM 43.1091 153.4487 48° Northeast  Level FlightAware Approximate
Sun 06:23:00 AM 43.2042 153.5920 48° Northeast  Level FlightAware Approximate
Sun 06:24:00 AM 43.2992 153.7357 48° Northeast  Level FlightAware Approximate
Sun 06:25:00 AM 43.3940 153.8799 48° Northeast  Level FlightAware Approximate
Sun 06:26:00 AM 43.4885 154.0245 48° Northeast  Level FlightAware Approximate
Sun 06:27:00 AM 43.5830 154.1696 48° Northeast  Level FlightAware Approximate
Sun 06:28:00 AM 43.6772 154.3151 48° Northeast  Level FlightAware Approximate
Sun 06:29:00 AM 43.7712 154.4611 48° Northeast  Level FlightAware Approximate
Sun 06:30:00 AM 43.8651 154.6076 48° Northeast  Level FlightAware Approximate
Sun 06:31:00 AM 43.9587 154.7545 48° Northeast  Level FlightAware Approximate
Sun 06:32:00 AM 44.0522 154.9019 49° Northeast  Level FlightAware Approximate
Sun 06:33:00 AM 44.1455 155.0497 49° Northeast  Level FlightAware Approximate
Sun 06:34:00 AM 44.2365 155.2005 50° Northeast  Level FlightAware Approximate
Sun 06:35:00 AM 44.3266 155.3526 50° Northeast  Level FlightAware Approximate
Sun 06:36:00 AM 44.4166 155.5051 50° Northeast  Level FlightAware Approximate
Sun 06:37:00 AM 44.5063 155.6580 51° Northeast  Level FlightAware Approximate
Sun 06:38:00 AM 44.5959 155.8115 51° Northeast  Level FlightAware Approximate
Sun 06:39:00 AM 44.6853 155.9652 51° Northeast  Level FlightAware Approximate
Sun 06:40:00 AM 44.7751 156.1190 51° Northeast  Level FlightAware Approximate
Sun 06:41:00 AM 44.8646 156.2732 51° Northeast  Level FlightAware Approximate
Sun 06:42:00 AM 44.9538 156.4279 51° Northeast  Level FlightAware Approximate
Sun 06:43:00 AM 45.0429 156.5830 51° Northeast  Level FlightAware Approximate
Sun 06:44:00 AM 45.1318 156.7387 51° Northeast  Level FlightAware Approximate
Sun 06:45:00 AM 45.2206 156.8946 51° Northeast  Level FlightAware Approximate
Sun 06:46:00 AM 45.3094 157.0509 51° Northeast  Level FlightAware Approximate
Sun 06:47:00 AM 45.3971 157.2063 51° Northeast  Level FlightAware Approximate
Sun 06:48:00 AM 45.4847 157.3622 51° Northeast  Level FlightAware Approximate
Sun 06:49:00 AM 45.5720 157.5185 51° Northeast  Level FlightAware Approximate
Sun 06:50:00 AM 45.6591 157.6754 51° Northeast  Level FlightAware Approximate
Sun 06:51:00 AM 45.7460 157.8327 52° Northeast  Level FlightAware Approximate
Sun 06:52:00 AM 45.8327 157.9906 52° Northeast  Level FlightAware Approximate
Sun 06:53:00 AM 45.9192 158.1489 52° Northeast  Level FlightAware Approximate
Sun 06:54:00 AM 46.0055 158.3077 52° Northeast  Level FlightAware Approximate
Sun 06:55:00 AM 46.0915 158.4671 52° Northeast  Level FlightAware Approximate
Sun 06:56:00 AM 46.1773 158.6269 52° Northeast  Level FlightAware Approximate
Sun 06:57:00 AM 46.2629 158.7872 52° Northeast  Level FlightAware Approximate
Sun 06:58:00 AM 46.3483 158.9480 52° Northeast  Level FlightAware Approximate
Sun 06:59:00 AM 46.4334 159.1093 53° Northeast  Level FlightAware Approximate
Sun 07:00:00 AM 46.5183 159.2711 53° Northeast  Level FlightAware Approximate
Sun 07:01:00 AM 46.6030 159.4334 53° Northeast  Level FlightAware Approximate
Sun 07:02:00 AM 46.6874 159.5963 53° Northeast  Level FlightAware Approximate
Sun 07:03:00 AM 46.7716 159.7596 53° Northeast  Level FlightAware Approximate
Sun 07:04:00 AM 46.8556 159.9235 53° Northeast  Level FlightAware Approximate
Sun 07:05:00 AM 46.9394 160.0878 53° Northeast  Level FlightAware Approximate
Sun 07:06:00 AM 47.0229 160.2527 53° Northeast  Level FlightAware Approximate
Sun 07:07:00 AM 47.1062 160.4181 53° Northeast  Level FlightAware Approximate
Sun 07:07:05 AM 47.5500 161.3333 55° Northeast 528 608 40,000  Level Anchorage Center
Sun 07:08:00 AM 47.1892 160.5840 54° Northeast  Level FlightAware Approximate
Sun 07:09:00 AM 47.2720 160.7504 54° Northeast  Level FlightAware Approximate
Sun 07:09:04 AM 47.7333 161.7333 55° Northeast 530 610 40,000  Level Anchorage Center
Sun 07:10:00 AM 47.3546 160.9174 54° Northeast  Level FlightAware Approximate
Sun 07:11:00 AM 47.4369 161.0849 54° Northeast  Level FlightAware Approximate
Sun 07:12:00 AM 47.5190 161.2529 54° Northeast  Level FlightAware Approximate
Sun 07:13:00 AM 48.0662 162.4285 55° Northeast 528 608 40,000  Level FlightAware Transoceanic
Sun 07:14:00 AM 48.1512 162.6131 55° Northeast 528 608 40,000  Level FlightAware Transoceanic
Sun 07:15:00 AM 48.2444 162.8316 56° Northeast 530 610 40,000  Level FlightAware Transoceanic
Sun 07:16:00 AM 48.3286 163.0167 56° Northeast 530 610 40,000  Level FlightAware Transoceanic
Sun 07:17:00 AM 48.4124 163.2025 56° Northeast 530 610 40,000  Level FlightAware Transoceanic
Sun 07:18:00 AM 48.4960 163.3889 56° Northeast 530 610 40,000  Level FlightAware Transoceanic
Sun 07:18:40 AM 48.5333 163.4500 56° Northeast 530 610 40,000  Level Anchorage Center
Sun 07:19:00 AM 48.5793 163.5759 56° Northeast 530 610 40,000  Level FlightAware Transoceanic
Sun 07:20:00 AM 48.6622 163.7635 56° Northeast 530 610 40,000  Level FlightAware Transoceanic
Sun 07:21:00 AM 48.7449 163.9517 56° Northeast 530 610 40,000  Level FlightAware Transoceanic
Sun 07:22:00 AM 48.8272 164.1406 57° Northeast 530 610 40,000  Level FlightAware Transoceanic
Sun 07:23:00 AM 48.9092 164.3301 57° Northeast 530 610 40,000  Level FlightAware Transoceanic
Sun 07:24:00 AM 48.9910 164.5202 57° Northeast 530 610 40,000  Level FlightAware Transoceanic
Sun 07:25:00 AM 49.1024 164.7624 57° Northeast 530 610 40,000  Level FlightAware Transoceanic
Sun 07:26:00 AM 49.1825 164.9523 57° Northeast 530 610 40,000  Level FlightAware Transoceanic
Sun 07:27:00 AM 49.2622 165.1429 57° Northeast 530 610 40,000  Level FlightAware Transoceanic
Sun 07:28:00 AM 49.3417 165.3340 58° Northeast 530 610 40,000  Level FlightAware Transoceanic
Sun 07:28:16 AM 49.3167 165.2667 58° Northeast 542 624 40,000  Level Anchorage Center
Sun 07:29:00 AM 49.4208 165.5258 58° Northeast 530 610 40,000  Level FlightAware Transoceanic
Sun 07:30:00 AM 49.4996 165.7182 58° Northeast 530 610 40,000  Level FlightAware Transoceanic
Sun 07:31:00 AM 49.5781 165.9112 58° Northeast 530 610 40,000  Level FlightAware Transoceanic
Sun 07:32:00 AM 49.6563 166.1048 58° Northeast 530 610 40,000  Level FlightAware Transoceanic
Sun 07:33:00 AM 49.7341 166.2991 58° Northeast 530 610 40,000  Level FlightAware Transoceanic
Sun 07:33:12 AM 49.7000 166.2167 58° Northeast 535 616 40,000  Level Anchorage Center
Sun 07:34:00 AM 49.7923 166.4395 58° Northeast 542 624 40,000  Level FlightAware Transoceanic
Sun 07:35:00 AM 49.8704 166.6373 59° Northeast 542 624 40,000  Level FlightAware Transoceanic
Sun 07:36:00 AM 49.9482 166.8356 59° Northeast 542 624 40,000  Level FlightAware Transoceanic
Sun 07:37:00 AM 50.0257 167.0346 59° Northeast 542 624 40,000  Level FlightAware Transoceanic
Sun 07:37:52 AM 50.0667 167.1333 59° Northeast 531 611 40,000  Level Anchorage Center
Sun 07:38:00 AM 50.1027 167.2342 59° Northeast 542 624 40,000  Level FlightAware Transoceanic
Sun 07:39:00 AM 50.1693 167.4147 59° Northeast 535 616 40,000  Level FlightAware Transoceanic
Sun 07:40:00 AM 50.2463 167.6166 59° Northeast 535 616 40,000  Level FlightAware Transoceanic
Sun 07:41:00 AM 50.3230 167.8192 59° Northeast 535 616 40,000  Level FlightAware Transoceanic
Sun 07:42:00 AM 50.3993 168.0225 60° Northeast 535 616 40,000  Level FlightAware Transoceanic
Sun 07:43:00 AM 50.4752 168.2264 60° Northeast 535 616 40,000  Level FlightAware Transoceanic
Sun 07:44:00 AM 50.5110 168.3125 60° Northeast 531 611 40,000  Level FlightAware Transoceanic
Sun 07:45:00 AM 50.5839 168.5112 60° Northeast 531 611 40,000 -1,327 Level FlightAware Transoceanic
Sun 07:45:44 AM 50.6500 168.7000 61° Northeast 550 633 37,700  Descending Anchorage Center
Sun 07:46:00 AM 50.6565 168.7104 60° Northeast 531 611 40,000 -700 Climbing FlightAware Transoceanic
Sun 07:46:44 AM 50.7000 168.8833 67° East 550 633 37,000  Descending Anchorage Center
Sun 07:47:00 AM 50.7287 168.9104 60° Northeast 531 611 40,000  Climbing FlightAware Transoceanic
Sun 07:47:44 AM 50.7833 169.1167 60° Northeast 550 633 37,000  Descending Anchorage Center
Sun 07:48:00 AM 50.8006 169.1109 61° Northeast 531 611 40,000  Climbing FlightAware Transoceanic
Sun 07:48:44 AM 50.8667 169.3333 59° Northeast 550 633 37,000  Descending Anchorage Center
Sun 07:49:00 AM 50.8721 169.3120 61° Northeast 531 611 40,000  Climbing FlightAware Transoceanic
Sun 07:49:44 AM 50.9333 169.5167 60° Northeast 550 633 37,000  Descending Anchorage Center
Sun 07:50:00 AM 50.9433 169.5137 61° Northeast 531 611 40,000  Climbing FlightAware Transoceanic
Sun 07:50:45 AM 51.0167 169.7500 60° Northeast 550 633 37,000  Descending Anchorage Center
Sun 07:51:00 AM 51.0141 169.7161 61° Northeast 531 611 40,000  Climbing FlightAware Transoceanic
Sun 07:51:45 AM 51.0833 169.9500 62° Northeast 560 644 37,000 -1,714 Descending Anchorage Center
Sun 07:52:45 AM 51.1667 170.1833 60° Northeast 560 644 37,000  Level Anchorage Center
Sun 07:53:45 AM 51.2333 170.3500 57° Northeast 550 633 37,000  Level Anchorage Center
Sun 07:54:45 AM 51.3167 170.5833 60° Northeast 550 633 37,000  Level Anchorage Center
Sun 07:55:45 AM 51.3667 170.7833 68° East 550 633 37,000  Level Anchorage Center
Sun 07:56:45 AM 51.4500 171.0167 60° Northeast 560 644 37,000  Level Anchorage Center
Sun 07:57:45 AM 51.5000 171.2667 72° East 550 633 37,000  Level Anchorage Center
Sun 07:58:45 AM 51.5333 171.4833 76° East 560 644 37,000  Level Anchorage Center
Sun 07:59:45 AM 51.5333 171.7833 90° East 610 702 37,000  Level Anchorage Center
Sun 08:00:45 AM 51.5500 172.0000 83° East 590 679 37,000  Level Anchorage Center
Sun 08:01:45 AM 51.5833 172.2833 79° East 590 679 37,000  Level Anchorage Center
Sun 08:02:46 AM 51.6000 172.5167 83° East 580 667 37,000  Level Anchorage Center
Sun 08:03:46 AM 51.6167 172.7833 84° East 580 667 37,000  Level Anchorage Center
Sun 08:04:45 AM 51.6333 173.0667 84° East 570 656 37,000  Level Anchorage Center
Sun 08:05:46 AM 51.6500 173.2833 83° East 570 656 37,000  Level Anchorage Center
Sun 08:06:46 AM 51.6667 173.5500 84° East 560 644 37,000  Level Anchorage Center
Sun 08:07:46 AM 51.6833 173.7667 83° East 560 644 37,000  Level Anchorage Center
Sun 08:08:46 AM 51.7000 174.0333 84° East 560 644 37,000  Level Anchorage Center
Sun 08:09:46 AM 51.7167 174.2500 83° East 550 633 37,000  Level Anchorage Center
Sun 08:10:46 AM 51.7333 174.5167 84° East 560 644 37,000  Level Anchorage Center
Sun 08:11:46 AM 51.7500 174.8000 84° East 560 644 37,000  Level Anchorage Center
Sun 08:12:46 AM 51.7667 175.0167 83° East 560 644 37,000  Level Anchorage Center
Sun 08:13:46 AM 51.7833 175.2833 84° East 560 644 37,000  Level Anchorage Center
Sun 08:14:46 AM 51.7833 175.5000 90° East 560 644 37,000  Level Anchorage Center
Sun 08:15:46 AM 51.8000 175.7667 84° East 570 656 37,000  Level Anchorage Center
Sun 08:16:47 AM 51.8167 175.9833 83° East 560 644 37,000  Level Anchorage Center
Sun 08:17:47 AM 51.8333 176.2667 84° East 560 644 37,000  Level Anchorage Center
Sun 08:18:47 AM 51.8333 176.5333 90° East 560 644 37,000  Level Anchorage Center
Sun 08:19:47 AM 51.8500 176.7500 83° East 560 644 37,000  Level Anchorage Center
Sun 08:20:47 AM 51.8667 177.0167 84° East 560 644 37,000  Level Anchorage Center
Sun 08:21:47 AM 51.8667 177.2500 90° East 560 644 37,000  Level Anchorage Center
Sun 08:22:47 AM 51.8833 177.5167 84° East 550 633 37,000  Level Anchorage Center
Sun 08:23:47 AM 51.9000 177.7333 83° East 560 644 37,000  Level Anchorage Center
Sun 08:24:47 AM 51.9167 178.0000 84° East 550 633 37,000  Level Anchorage Center
Sun 08:25:47 AM 51.9333 178.2667 84° East 540 621 37,000  Level Anchorage Center
Sun 08:26:47 AM 51.9500 178.4833 83° East 550 633 37,000  Level Anchorage Center
Sun 08:27:47 AM 51.9500 178.7667 90° East 550 633 37,000 250 Level Anchorage Center
Sun 08:28:47 AM 51.9667 178.9833 83° East 550 633 37,500 750 Climbing Anchorage Center
Sun 08:29:47 AM 51.9833 179.2500 84° East 550 633 38,500 744 Climbing Anchorage Center
Sun 08:30:48 AM 51.9833 179.4667 90° East 550 633 39,000 250 Climbing Anchorage Center
Sun 08:31:47 AM 52.0000 179.7333 84° East 550 633 39,000  Level Anchorage Center
Sun 08:32:48 AM 52.0167 179.9500 83° East 550 633 39,000  Level Anchorage Center
Sun 08:33:48 AM 52.0167 -179.7667 90° East 540 621 39,000  Level Anchorage Center
Sun 08:34:47 AM 52.0333 -179.5000 84° East 540 621 39,000  Level Anchorage Center
Sun 08:37:00 AM 52.0428 -179.2282 87° East  Level FlightAware Approximate
Sun 08:44:00 AM 52.0856 -177.6410 87° East  Level FlightAware Approximate
Sun 08:45:00 AM 52.1167 -176.9833 89° East 556 640 39,000  Level Anchorage Center
Sun 08:45:00 AM 52.0900 -177.4140 88° East  Level FlightAware Approximate
Sun 08:46:00 AM 52.0939 -177.1870 88° East  Level FlightAware Approximate
Sun 08:47:00 AM 52.0974 -176.9600 88° East  Level FlightAware Approximate
Sun 08:48:00 AM 52.1005 -176.7329 89° East  Level FlightAware Approximate
Sun 08:49:00 AM 52.1031 -176.5058 89° East  Level FlightAware Approximate
Sun 08:50:00 AM 52.1053 -176.2786 89° East  Level FlightAware Approximate
Sun 08:51:00 AM 52.1264 -175.4849 90° East 556 640 39,000  Level FlightAware Transoceanic
Sun 08:52:00 AM 52.1262 -175.2351 90° East 556 640 39,000  Level FlightAware Transoceanic
Sun 08:53:00 AM 52.1255 -174.9853 90° East 556 640 39,000  Level FlightAware Transoceanic
Sun 08:54:00 AM 52.1242 -174.7355 91° East 556 640 39,000  Level FlightAware Transoceanic
Sun 08:54:36 AM 52.1167 -174.6333 91° East 538 619 39,000  Level Anchorage Center
Sun 08:55:00 AM 52.1224 -174.4858 91° East 556 640 39,000  Level FlightAware Transoceanic
Sun 08:56:00 AM 52.1201 -174.2361 91° East 556 640 39,000  Level FlightAware Transoceanic
Sun 08:57:00 AM 52.1172 -173.9864 91° East 556 640 39,000  Level FlightAware Transoceanic
Sun 08:58:00 AM 52.1138 -173.7367 91° East 556 640 39,000  Level FlightAware Transoceanic
Sun 08:59:00 AM 52.1099 -173.4871 92° East 556 640 39,000  Level FlightAware Transoceanic
Sun 09:00:00 AM 52.1055 -173.2375 92° East 556 640 39,000  Level FlightAware Transoceanic
Sun 09:01:00 AM 52.0965 -173.0091 92° East 538 619 39,000  Level FlightAware Transoceanic
Sun 09:02:00 AM 52.0918 -172.7772 92° East 538 619 39,000  Level FlightAware Transoceanic
Sun 09:03:00 AM 52.0867 -172.5454 92° East 538 619 39,000  Level FlightAware Transoceanic
Sun 09:04:00 AM 52.0811 -172.3136 92° East 538 619 39,000  Level FlightAware Transoceanic
Sun 09:04:12 AM 52.0833 -172.2833 92° East 547 629 39,000  Level Anchorage Center
Sun 09:05:00 AM 52.0750 -172.0819 93° East 538 619 39,000  Level FlightAware Transoceanic
Sun 09:06:00 AM 52.0685 -171.8503 93° East 538 619 39,000  Level FlightAware Transoceanic
Sun 09:07:00 AM 52.0615 -171.6187 93° East 538 619 39,000  Level FlightAware Transoceanic
Sun 09:08:00 AM 52.0541 -171.3872 93° East 538 619 39,000  Level FlightAware Transoceanic
Sun 09:09:00 AM 52.0462 -171.1558 93° East 538 619 39,000  Level FlightAware Transoceanic
Sun 09:10:00 AM 52.0327 -170.7601 94° East 547 629 39,000  Level FlightAware Transoceanic
Sun 09:11:00 AM 52.0223 -170.5066 94° East 547 629 39,000  Level FlightAware Transoceanic
Sun 09:12:00 AM 52.0114 -170.2533 94° East 547 629 39,000  Level FlightAware Transoceanic
Sun 09:13:00 AM 52.0000 -170.0000 86° East 547 629 39,000  Level FlightAware Transoceanic
Sun 09:13:42 AM 52.0000 -170.0000 86° East 550 633 39,000  Level Anchorage Center
Sun 09:14:00 AM 52.0098 -169.7626 86° East 547 629 39,000  Level FlightAware Transoceanic
Sun 09:14:07 AM 52.0000 -169.9333 86° East 550 633 39,000  Level Anchorage Center
Sun 09:15:00 AM 52.0192 -169.5251 86° East 547 629 39,000  Level FlightAware Transoceanic
Sun 09:16:00 AM 52.0281 -169.2875 87° East 547 629 39,000  Level FlightAware Transoceanic
Sun 09:17:00 AM 52.0365 -169.0498 87° East 547 629 39,000  Level FlightAware Transoceanic
Sun 09:18:00 AM 52.0444 -168.8121 87° East 547 629 39,000  Level FlightAware Transoceanic
Sun 09:19:00 AM 52.0518 -168.5742 87° East 547 629 39,000  Level FlightAware Transoceanic
Sun 09:20:00 AM 52.0533 -168.4461 87° East 550 633 39,000  Level FlightAware Transoceanic
Sun 09:21:00 AM 52.0603 -168.1979 87° East 550 633 39,000  Level FlightAware Transoceanic
Sun 09:22:00 AM 52.0669 -167.9496 88° East 550 633 39,000  Level FlightAware Transoceanic
Sun 09:23:00 AM 52.0729 -167.7013 88° East 550 633 39,000  Level FlightAware Transoceanic
Sun 09:23:24 AM 52.0833 -167.5667 88° East 536 617 39,000  Level Anchorage Center
Sun 09:24:00 AM 52.0784 -167.4529 88° East 550 633 39,000  Level FlightAware Transoceanic
Sun 09:25:00 AM 52.0833 -167.2045 88° East 550 633 39,000  Level FlightAware Transoceanic
Sun 09:26:00 AM 52.0878 -166.9559 88° East 550 633 39,000  Level FlightAware Transoceanic
Sun 09:27:00 AM 52.0917 -166.7074 89° East 550 633 39,000  Level FlightAware Transoceanic
Sun 09:28:00 AM 52.0951 -166.4588 89° East 550 633 39,000  Level FlightAware Transoceanic
Sun 09:29:00 AM 52.1046 -166.1471 89° East 536 617 39,000  Level FlightAware Transoceanic
Sun 09:30:00 AM 52.1065 -165.9104 89° East 536 617 39,000  Level FlightAware Transoceanic
Sun 09:31:00 AM 52.1080 -165.6736 90° East 536 617 39,000  Level FlightAware Transoceanic
Sun 09:32:00 AM 52.1089 -165.4369 90° East 536 617 39,000  Level FlightAware Transoceanic
Sun 09:33:00 AM 52.1094 -165.2001 90° East 536 617 39,000  Level FlightAware Transoceanic
Sun 09:34:00 AM 52.1094 -164.9634 90° East 536 617 39,000  Level FlightAware Transoceanic
Sun 09:35:00 AM 52.1089 -164.7267 90° East 536 617 39,000  Level FlightAware Transoceanic
Sun 09:36:00 AM 52.1080 -164.4899 90° East 536 617 39,000  Level FlightAware Transoceanic
Sun 09:37:00 AM 52.1065 -164.2532 91° East 536 617 39,000  Level FlightAware Transoceanic
Sun 09:38:00 AM 52.1046 -164.0165 91° East 536 617 39,000  Level FlightAware Transoceanic
Sun 09:39:00 AM 52.1023 -163.7798 91° East 536 617 39,000  Level FlightAware Transoceanic
Sun 09:40:00 AM 52.0994 -163.5431 91° East 536 617 39,000  Level FlightAware Transoceanic
Sun 09:41:00 AM 52.0961 -163.3065 91° East 536 617 39,000  Level FlightAware Transoceanic
Sun 09:42:00 AM 52.0923 -163.0699 92° East 536 617 39,000  Level FlightAware Transoceanic
Sun 09:42:34 AM 52.0833 -163.0167 91° East 533 613 39,000  Level Oakland Oceanic (ODAPS)
Sun 09:43:00 AM 52.0881 -162.8334 92° East 536 617 39,000  Level FlightAware Transoceanic
Sun 09:44:00 AM 52.0833 -162.5969 92° East 536 617 39,000  Level FlightAware Transoceanic
Sun 09:45:00 AM 52.0781 -162.3604 92° East 536 617 39,000  Level FlightAware Transoceanic
Sun 09:46:00 AM 52.0724 -162.1241 92° East 536 617 39,000  Level FlightAware Transoceanic
Sun 09:47:00 AM 52.0662 -161.8877 93° East 536 617 39,000  Level FlightAware Transoceanic
Sun 09:48:00 AM 52.0544 -161.6230 92° East 533 613 39,000  Level FlightAware Transoceanic
Sun 09:49:00 AM 52.0480 -161.3909 93° East 533 613 39,000  Level FlightAware Transoceanic
Sun 09:50:00 AM 52.0412 -161.1589 93° East 533 613 39,000  Level FlightAware Transoceanic
Sun 09:50:44 AM 52.0167 -161.1000 104° East 530 610 39,000  Level Anchorage Center
Sun 09:51:00 AM 52.0338 -160.9269 93° East 533 613 39,000  Level FlightAware Transoceanic
Sun 09:51:43 AM 52.0000 -160.8667 97° East 520 598 39,000  Level Anchorage Center
Sun 09:52:00 AM 52.0261 -160.6951 93° East 533 613 39,000  Level FlightAware Transoceanic
Sun 09:52:43 AM 52.0000 -160.6500 90° East 490 564 39,000  Level Anchorage Center
Sun 09:53:00 AM 52.0178 -160.4633 93° East 533 613 39,000  Level FlightAware Transoceanic
Sun 09:54:00 AM 52.0091 -160.2316 94° East 533 613 39,000  Level FlightAware Transoceanic
Sun 09:54:00 AM 51.9561 -160.3690 104° East  Level Estimated
Sun 09:55:00 AM 52.0000 -160.0000 104° East 533 613 39,000  Level FlightAware Transoceanic
Sun 09:55:26 AM 52.0000 -160.0000 104° East 508 585 39,000  Level Oakland Oceanic (ODAPS)
Sun 09:56:26 AM 51.9667 -159.7667 104° East 502 578 39,000  Level Oakland Oceanic (ODAPS)
Sun 10:01:00 AM 51.7931 -158.6770 105° East 508 585 39,000  Level FlightAware Transoceanic
Sun 10:02:00 AM 51.7618 -158.4753 105° East 502 578 39,000  Level FlightAware Transoceanic
Sun 10:03:00 AM 51.7263 -158.2612 105° East 502 578 39,000  Level FlightAware Transoceanic
Sun 10:04:00 AM 51.6904 -158.0475 105° East 502 578 39,000  Level FlightAware Transoceanic
Sun 10:05:00 AM 51.6541 -157.8341 105° East 502 578 39,000  Level FlightAware Transoceanic
Sun 10:06:00 AM 51.6175 -157.6210 106° East 502 578 39,000  Level FlightAware Transoceanic
Sun 10:07:00 AM 51.5804 -157.4083 106° East 502 578 39,000  Level FlightAware Transoceanic
Sun 10:08:00 AM 51.5429 -157.1959 106° East 502 578 39,000  Level FlightAware Transoceanic
Sun 10:09:00 AM 51.5051 -156.9839 106° East 502 578 39,000  Level FlightAware Transoceanic
Sun 10:10:00 AM 51.4669 -156.7723 106° East 502 578 39,000  Level FlightAware Transoceanic
Sun 10:10:23 AM 51.4667 -156.7500 106° East 497 572 39,000  Level Oakland Oceanic (ODAPS)
Sun 10:11:00 AM 51.4283 -156.5610 106° East 502 578 39,000  Level FlightAware Transoceanic
Sun 10:12:00 AM 51.3894 -156.3500 107° East 502 578 39,000  Level FlightAware Transoceanic
Sun 10:13:00 AM 51.3500 -156.1395 107° East 502 578 39,000  Level FlightAware Transoceanic
Sun 10:14:00 AM 51.3103 -155.9292 107° East 502 578 39,000  Level FlightAware Transoceanic
Sun 10:15:00 AM 51.2702 -155.7194 107° East 502 578 39,000  Level FlightAware Transoceanic
Sun 10:16:00 AM 51.2293 -155.4918 107° East 497 572 39,000  Level FlightAware Transoceanic
Sun 10:17:00 AM 51.1885 -155.2834 107° East 497 572 39,000  Level FlightAware Transoceanic
Sun 10:18:00 AM 51.1473 -155.0753 108° East 497 572 39,000  Level FlightAware Transoceanic
Sun 10:19:00 AM 51.1057 -154.8676 108° East 497 572 39,000  Level FlightAware Transoceanic
Sun 10:20:00 AM 51.0637 -154.6603 108° East 497 572 39,000  Level FlightAware Transoceanic
Sun 10:21:00 AM 51.0214 -154.4534 108° East 497 572 39,000  Level FlightAware Transoceanic
Sun 10:22:00 AM 50.9787 -154.2468 108° East 497 572 39,000  Level FlightAware Transoceanic
Sun 10:23:00 AM 50.9356 -154.0407 108° East 497 572 39,000  Level FlightAware Transoceanic
Sun 10:24:00 AM 50.8922 -153.8349 109° East 497 572 39,000  Level FlightAware Transoceanic
Sun 10:24:14 AM 50.9000 -153.9000 108° East 490 564 39,000  Level Oakland Oceanic (ODAPS)
Sun 10:25:00 AM 50.8484 -153.6295 109° East 497 572 39,000  Level FlightAware Transoceanic
Sun 10:26:00 AM 50.8043 -153.4245 109° East 497 572 39,000  Level FlightAware Transoceanic
Sun 10:27:00 AM 50.7598 -153.2198 109° East 497 572 39,000  Level FlightAware Transoceanic
Sun 10:28:00 AM 50.7149 -153.0156 109° East 497 572 39,000  Level FlightAware Transoceanic
Sun 10:29:00 AM 50.6697 -152.8118 109° East 497 572 39,000  Level FlightAware Transoceanic
Sun 10:30:00 AM 50.6437 -152.7145 109° East 490 564 39,000  Level FlightAware Transoceanic
Sun 10:31:00 AM 50.5999 -152.5182 109° East 490 564 39,000  Level FlightAware Transoceanic
Sun 10:32:00 AM 50.5557 -152.3222 110° East 490 564 39,000  Level FlightAware Transoceanic
Sun 10:33:00 AM 50.5112 -152.1267 110° East 490 564 39,000  Level FlightAware Transoceanic
Sun 10:34:00 AM 50.4663 -151.9315 110° East 490 564 39,000  Level FlightAware Transoceanic
Sun 10:35:00 AM 50.4211 -151.7366 110° East 490 564 39,000  Level FlightAware Transoceanic
Sun 10:36:00 AM 50.3756 -151.5421 110° East 490 564 39,000  Level FlightAware Transoceanic
Sun 10:37:00 AM 50.3298 -151.3481 110° East 490 564 39,000  Level FlightAware Transoceanic
Sun 10:38:00 AM 50.2836 -151.1543 111° Southeast 490 564 39,000  Level FlightAware Transoceanic
Sun 10:38:06 AM 50.2833 -151.1333 111° Southeast 488 562 39,000  Level Oakland Oceanic (ODAPS)
Sun 10:39:00 AM 50.2371 -150.9610 111° Southeast 490 564 39,000  Level FlightAware Transoceanic
Sun 10:40:00 AM 50.1903 -150.7680 111° Southeast 490 564 39,000  Level FlightAware Transoceanic
Sun 10:41:00 AM 50.1432 -150.5755 111° Southeast 490 564 39,000  Level FlightAware Transoceanic
Sun 10:42:00 AM 50.0958 -150.3833 111° Southeast 490 564 39,000  Level FlightAware Transoceanic
Sun 10:43:00 AM 50.0481 -150.1914 111° Southeast 490 564 39,000  Level FlightAware Transoceanic
Sun 10:43:50 AM 50.0000 -150.0000 117° Southeast 498 573 39,000  Level Oakland Oceanic (ODAPS)
Sun 10:44:00 AM 50.0000 -150.0000 117° Southeast 488 562 39,000  Level FlightAware Transoceanic
Sun 10:45:00 AM 49.9387 -149.8143 117° Southeast 488 562 39,000  Level FlightAware Transoceanic
Sun 10:46:00 AM 49.8772 -149.6290 117° Southeast 488 562 39,000  Level FlightAware Transoceanic
Sun 10:47:00 AM 49.8153 -149.4443 118° Southeast 488 562 39,000  Level FlightAware Transoceanic
Sun 10:48:00 AM 49.7532 -149.2600 118° Southeast 488 562 39,000  Level FlightAware Transoceanic
Sun 10:49:00 AM 49.6908 -149.0761 118° Southeast 488 562 39,000  Level FlightAware Transoceanic
Sun 10:50:00 AM 49.6146 -148.8536 118° Southeast 498 573 39,000  Level FlightAware Transoceanic
Sun 10:51:00 AM 49.5492 -148.6643 118° Southeast 498 573 39,000  Level FlightAware Transoceanic
Sun 10:51:58 AM 49.4833 -148.4833 118° Southeast 484 557 39,000  Level Oakland Oceanic (ODAPS)
Sun 10:52:00 AM 49.4836 -148.4755 118° Southeast 498 573 39,000  Level FlightAware Transoceanic
Sun 10:53:00 AM 49.4176 -148.2872 118° Southeast 498 573 39,000  Level FlightAware Transoceanic
Sun 10:54:00 AM 49.3514 -148.0994 119° Southeast 498 573 39,000  Level FlightAware Transoceanic
Sun 10:55:00 AM 49.2848 -147.9121 119° Southeast 498 573 39,000  Level FlightAware Transoceanic
Sun 10:56:00 AM 49.2180 -147.7254 119° Southeast 498 573 39,000  Level FlightAware Transoceanic
Sun 10:57:00 AM 49.1508 -147.5391 119° Southeast 498 573 39,000  Level FlightAware Transoceanic
Sun 10:58:00 AM 49.0994 -147.4048 119° Southeast 484 557 39,000  Level FlightAware Transoceanic
Sun 10:59:00 AM 49.0345 -147.2266 119° Southeast 484 557 39,000  Level FlightAware Transoceanic
Sun 11:00:00 AM 48.9692 -147.0490 119° Southeast 484 557 39,000  Level FlightAware Transoceanic
Sun 11:01:00 AM 48.9037 -146.8718 119° Southeast 484 557 39,000  Level FlightAware Transoceanic
Sun 11:02:00 AM 48.8380 -146.6950 120° Southeast 484 557 39,000  Level FlightAware Transoceanic
Sun 11:03:00 AM 48.7719 -146.5188 120° Southeast 484 557 39,000  Level FlightAware Transoceanic
Sun 11:04:00 AM 48.7056 -146.3429 120° Southeast 484 557 39,000  Level FlightAware Transoceanic
Sun 11:05:00 AM 48.6390 -146.1676 120° Southeast 484 557 39,000  Level FlightAware Transoceanic
Sun 11:05:50 AM 48.6000 -146.0500 120° Southeast 483 556 39,000  Level Oakland Oceanic (ODAPS)
Sun 11:06:00 AM 48.5722 -145.9927 120° Southeast 484 557 39,000  Level FlightAware Transoceanic
Sun 11:07:00 AM 48.5051 -145.8183 120° Southeast 484 557 39,000  Level FlightAware Transoceanic
Sun 11:08:00 AM 48.4377 -145.6443 120° Southeast 484 557 39,000  Level FlightAware Transoceanic
Sun 11:09:00 AM 48.3701 -145.4709 120° Southeast 484 557 39,000  Level FlightAware Transoceanic
Sun 11:10:00 AM 48.3022 -145.2978 121° Southeast 484 557 39,000  Level FlightAware Transoceanic
Sun 11:11:00 AM 48.2340 -145.1252 121° Southeast 484 557 39,000  Level FlightAware Transoceanic
Sun 11:12:00 AM 48.1892 -145.0000 121° Southeast 483 556 39,000  Level FlightAware Transoceanic
Sun 11:13:00 AM 48.1199 -144.8267 121° Southeast 483 556 39,000  Level FlightAware Transoceanic
Sun 11:14:00 AM 48.0502 -144.6538 121° Southeast 483 556 39,000  Level FlightAware Transoceanic
Sun 11:15:00 AM 47.9803 -144.4814 121° Southeast 483 556 39,000  Level FlightAware Transoceanic
Sun 11:16:00 AM 47.9102 -144.3094 121° Southeast 483 556 39,000  Level FlightAware Transoceanic
Sun 11:17:00 AM 47.8397 -144.1379 122° Southeast 483 556 39,000  Level FlightAware Transoceanic
Sun 11:18:00 AM 47.7691 -143.9669 122° Southeast 483 556 39,000  Level FlightAware Transoceanic
Sun 11:19:00 AM 47.6982 -143.7964 122° Southeast 483 556 39,000  Level FlightAware Transoceanic
Sun 11:19:43 AM 47.6500 -143.6833 122° Southeast 483 556 39,000  Level Oakland Oceanic (ODAPS)
Sun 11:20:00 AM 47.6270 -143.6263 122° Southeast 483 556 39,000  Level FlightAware Transoceanic
Sun 11:21:00 AM 47.5556 -143.4566 122° Southeast 483 556 39,000  Level FlightAware Transoceanic
Sun 11:22:00 AM 47.4839 -143.2875 122° Southeast 483 556 39,000  Level FlightAware Transoceanic
Sun 11:23:00 AM 47.4120 -143.1188 122° Southeast 483 556 39,000  Level FlightAware Transoceanic
Sun 11:24:00 AM 47.3398 -142.9505 122° Southeast 483 556 39,000  Level FlightAware Transoceanic
Sun 11:25:00 AM 47.2855 -142.8263 122° Southeast 483 556 39,000  Level FlightAware Transoceanic
Sun 11:26:00 AM 47.2118 -142.6563 123° Southeast 483 556 39,000  Level FlightAware Transoceanic
Sun 11:27:00 AM 47.1379 -142.4868 123° Southeast 483 556 39,000  Level FlightAware Transoceanic
Sun 11:28:00 AM 47.0637 -142.3177 123° Southeast 483 556 39,000  Level FlightAware Transoceanic
Sun 11:29:00 AM 46.9893 -142.1491 123° Southeast 483 556 39,000  Level FlightAware Transoceanic
Sun 11:30:00 AM 46.9147 -141.9810 123° Southeast 483 556 39,000  Level FlightAware Transoceanic
Sun 11:31:00 AM 46.8398 -141.8134 123° Southeast 483 556 39,000  Level FlightAware Transoceanic
Sun 11:32:00 AM 46.7646 -141.6462 123° Southeast 483 556 39,000  Level FlightAware Transoceanic
Sun 11:33:00 AM 46.6892 -141.4795 123° Southeast 483 556 39,000  Level FlightAware Transoceanic
Sun 11:33:33 AM 46.6500 -141.3833 124° Southeast 496 571 39,000  Level Oakland Oceanic (ODAPS)
Sun 11:34:00 AM 46.6136 -141.3133 124° Southeast 483 556 39,000  Level FlightAware Transoceanic
Sun 11:35:00 AM 46.5377 -141.1475 124° Southeast 483 556 39,000  Level FlightAware Transoceanic
Sun 11:36:00 AM 46.4616 -140.9822 124° Southeast 483 556 39,000  Level FlightAware Transoceanic
Sun 11:37:00 AM 46.3853 -140.8174 124° Southeast 483 556 39,000  Level FlightAware Transoceanic
Sun 11:38:00 AM 46.3087 -140.6530 124° Southeast 483 556 39,000  Level FlightAware Transoceanic
Sun 11:39:00 AM 46.2185 -140.4575 124° Southeast 496 571 39,000  Level FlightAware Transoceanic
Sun 11:40:00 AM 46.1459 -140.3046 125° Southeast 496 571 39,000  Level FlightAware Transoceanic
Sun 11:41:00 AM 46.0730 -140.1521 125° Southeast 496 571 39,000  Level FlightAware Transoceanic
Sun 11:42:00 AM 46.0000 -140.0000 116° Southeast 496 571 39,000  Level FlightAware Transoceanic
Sun 11:42:13 AM 46.0000 -140.0000 116° Southeast 482 555 39,000  Level Oakland Oceanic (ODAPS)
Sun 11:43:00 AM 45.9418 -139.8251 116° Southeast 496 571 39,000  Level FlightAware Transoceanic
Sun 11:44:00 AM 45.8833 -139.6506 116° Southeast 496 571 39,000  Level FlightAware Transoceanic
Sun 11:45:00 AM 45.8245 -139.4764 116° Southeast 496 571 39,000  Level FlightAware Transoceanic
Sun 11:46:00 AM 45.7655 -139.3026 116° Southeast 496 571 39,000  Level FlightAware Transoceanic
Sun 11:47:00 AM 45.7062 -139.1292 116° Southeast 496 571 39,000  Level FlightAware Transoceanic
Sun 11:47:26 AM 45.7000 -139.1000 116° Southeast 479 551 39,000  Level Oakland Oceanic (ODAPS)
Sun 11:48:00 AM 45.6525 -138.9728 116° Southeast 482 555 39,000  Level FlightAware Transoceanic
Sun 11:49:00 AM 45.5936 -138.8029 116° Southeast 482 555 39,000  Level FlightAware Transoceanic
Sun 11:50:00 AM 45.5346 -138.6333 117° Southeast 482 555 39,000  Level FlightAware Transoceanic
Sun 11:51:00 AM 45.4753 -138.4641 117° Southeast 482 555 39,000  Level FlightAware Transoceanic
Sun 11:52:00 AM 45.4157 -138.2952 117° Southeast 482 555 39,000  Level FlightAware Transoceanic
Sun 11:53:00 AM 45.3457 -138.0885 117° Southeast 479 551 39,000  Level FlightAware Transoceanic
Sun 11:54:00 AM 45.2858 -137.9211 117° Southeast 479 551 39,000  Level FlightAware Transoceanic
Sun 11:55:00 AM 45.2256 -137.7541 117° Southeast 479 551 39,000  Level FlightAware Transoceanic
Sun 11:56:00 AM 45.1652 -137.5875 117° Southeast 479 551 39,000  Level FlightAware Transoceanic
Sun 11:57:00 AM 45.1046 -137.4212 117° Southeast 479 551 39,000  Level FlightAware Transoceanic
Sun 11:58:00 AM 45.0437 -137.2553 118° Southeast 479 551 39,000  Level FlightAware Transoceanic
Sun 11:59:00 AM 44.9826 -137.0897 118° Southeast 479 551 39,000  Level FlightAware Transoceanic
Sun 12:00:00 PM 44.9212 -136.9245 118° Southeast 479 551 39,000  Level FlightAware Transoceanic
Sun 12:01:00 PM 44.8596 -136.7596 118° Southeast 479 551 39,000  Level FlightAware Transoceanic
Sun 12:01:18 PM 44.8667 -136.8000 118° Southeast 471 542 39,000  Level Oakland Oceanic (ODAPS)
Sun 12:02:00 PM 44.7977 -136.5951 118° Southeast 479 551 39,000  Level FlightAware Transoceanic
Sun 12:03:00 PM 44.7357 -136.4309 118° Southeast 479 551 39,000  Level FlightAware Transoceanic
Sun 12:04:00 PM 44.6734 -136.2671 118° Southeast 479 551 39,000  Level FlightAware Transoceanic
Sun 12:05:00 PM 44.6108 -136.1036 118° Southeast 479 551 39,000  Level FlightAware Transoceanic
Sun 12:06:00 PM 44.5480 -135.9405 118° Southeast 479 551 39,000  Level FlightAware Transoceanic
Sun 12:07:00 PM 44.5000 -135.8345 118° Southeast 471 542 39,000  Level FlightAware Transoceanic
Sun 12:08:00 PM 44.4382 -135.6748 119° Southeast 471 542 39,000  Level FlightAware Transoceanic
Sun 12:09:00 PM 44.3760 -135.5154 119° Southeast 471 542 39,000  Level FlightAware Transoceanic
Sun 12:10:00 PM 44.3137 -135.3564 119° Southeast 471 542 39,000  Level FlightAware Transoceanic
Sun 12:11:00 PM 44.2512 -135.1976 119° Southeast 471 542 39,000  Level FlightAware Transoceanic
Sun 12:12:00 PM 44.1884 -135.0393 119° Southeast 471 542 39,000  Level FlightAware Transoceanic
Sun 12:13:00 PM 44.1254 -134.8812 119° Southeast 471 542 39,000  Level FlightAware Transoceanic
Sun 12:14:00 PM 44.0622 -134.7235 119° Southeast 471 542 39,000  Level FlightAware Transoceanic
Sun 12:15:00 PM 43.9988 -134.5662 119° Southeast 471 542 39,000  Level FlightAware Transoceanic
Sun 12:15:20 PM 44.0167 -134.5833 119° Southeast 477 549 39,000  Level Oakland Oceanic (ODAPS)
Sun 12:16:00 PM 43.9351 -134.4091 119° Southeast 471 542 39,000  Level FlightAware Transoceanic
Sun 12:17:00 PM 43.8713 -134.2525 120° Southeast 471 542 39,000  Level FlightAware Transoceanic
Sun 12:18:00 PM 43.8072 -134.0961 120° Southeast 471 542 39,000  Level FlightAware Transoceanic
Sun 12:19:00 PM 43.7429 -133.9401 120° Southeast 471 542 39,000  Level FlightAware Transoceanic
Sun 12:20:00 PM 43.6784 -133.7844 120° Southeast 471 542 39,000  Level FlightAware Transoceanic
Sun 12:21:00 PM 43.6282 -133.6425 120° Southeast 477 549 39,000  Level FlightAware Transoceanic
Sun 12:22:00 PM 43.5627 -133.4868 120° Southeast 477 549 39,000  Level FlightAware Transoceanic
Sun 12:23:00 PM 43.4970 -133.3316 120° Southeast 477 549 39,000  Level FlightAware Transoceanic
Sun 12:24:00 PM 43.4310 -133.1766 120° Southeast 477 549 39,000  Level FlightAware Transoceanic
Sun 12:25:00 PM 43.3649 -133.0220 121° Southeast 477 549 39,000  Level FlightAware Transoceanic
Sun 12:26:00 PM 43.2986 -132.8677 121° Southeast 477 549 39,000  Level FlightAware Transoceanic
Sun 12:27:00 PM 43.2321 -132.7138 121° Southeast 477 549 39,000  Level FlightAware Transoceanic
Sun 12:28:00 PM 43.1653 -132.5602 121° Southeast 477 549 39,000  Level FlightAware Transoceanic
Sun 12:29:00 PM 43.0984 -132.4070 121° Southeast 477 549 39,000  Level FlightAware Transoceanic
Sun 12:29:10 PM 43.0833 -132.4000 121° Southeast 486 559 39,000  Level Oakland Oceanic (ODAPS)
Sun 12:30:00 PM 43.0312 -132.2540 121° Southeast 477 549 39,000  Level FlightAware Transoceanic
Sun 12:31:00 PM 42.9638 -132.1014 121° Southeast 477 549 39,000  Level FlightAware Transoceanic
Sun 12:32:00 PM 42.8963 -131.9492 121° Southeast 477 549 39,000  Level FlightAware Transoceanic
Sun 12:33:00 PM 42.8285 -131.7973 121° Southeast 477 549 39,000  Level FlightAware Transoceanic
Sun 12:34:00 PM 42.7606 -131.6457 121° Southeast 477 549 39,000  Level FlightAware Transoceanic
Sun 12:35:00 PM 42.6560 -131.4300 121° Southeast 486 559 39,000  Level FlightAware Transoceanic
Sun 12:36:00 PM 42.5840 -131.2696 121° Southeast 486 559 39,000  Level FlightAware Transoceanic
Sun 12:37:00 PM 42.5118 -131.1096 122° Southeast 486 559 39,000  Level FlightAware Transoceanic
Sun 12:38:00 PM 42.4393 -130.9500 122° Southeast 486 559 39,000  Level FlightAware Transoceanic
Sun 12:39:00 PM 42.3666 -130.7908 122° Southeast 486 559 39,000  Level FlightAware Transoceanic
Sun 12:40:00 PM 42.2938 -130.6319 122° Southeast 486 559 39,000  Level FlightAware Transoceanic
Sun 12:41:00 PM 42.2206 -130.4733 122° Southeast 486 559 39,000  Level FlightAware Transoceanic
Sun 12:42:00 PM 42.1473 -130.3152 122° Southeast 486 559 39,000  Level FlightAware Transoceanic
Sun 12:42:53 PM 42.1167 -130.2333 124° Southeast 500 575 39,000  Level Oakland Oceanic (ODAPS)
Sun 12:43:00 PM 42.0738 -130.1574 122° Southeast 486 559 39,000  Level FlightAware Transoceanic
Sun 12:44:00 PM 42.0000 -130.0000 120° Southeast 486 559 39,000  Level FlightAware Transoceanic
Sun 12:44:28 PM 42.0000 -130.0000 120° Southeast 493 567 39,000  Level Oakland Oceanic (ODAPS)
Sun 12:45:00 PM 41.9335 -129.8470 120° Southeast 486 559 39,000  Level FlightAware Transoceanic
Sun 12:46:00 PM 41.8669 -129.6943 120° Southeast 486 559 39,000  Level FlightAware Transoceanic
Sun 12:47:00 PM 41.8000 -129.5419 121° Southeast 486 559 39,000  Level FlightAware Transoceanic
Sun 12:48:00 PM 41.7329 -129.3899 121° Southeast 486 559 39,000  Level FlightAware Transoceanic
Sun 12:49:00 PM 41.6657 -129.2382 121° Southeast 500 575 39,000  Level FlightAware Transoceanic
Sun 12:50:00 PM 41.5982 -129.0868 121° Southeast 493 567 39,000  Level FlightAware Transoceanic
Sun 12:51:00 PM 41.5306 -128.9357 121° Southeast 493 567 39,000  Level FlightAware Transoceanic
Sun 12:52:00 PM 41.4627 -128.7849 121° Southeast 493 567 39,000  Level FlightAware Transoceanic
Sun 12:53:00 PM 41.3946 -128.6344 121° Southeast 493 567 39,000  Level FlightAware Transoceanic
Sun 12:54:00 PM 41.3264 -128.4843 121° Southeast 493 567 39,000  Level FlightAware Transoceanic
Sun 12:55:00 PM 41.2580 -128.3344 121° Southeast 493 567 39,000  Level FlightAware Transoceanic
Sun 12:56:00 PM 41.1893 -128.1849 121° Southeast 493 567 39,000  Level FlightAware Transoceanic
Sun 12:56:40 PM 41.1167 -128.0500 121° Southeast 507 583 39,000  Level Oakland Oceanic (ODAPS)
Sun 12:57:00 PM 41.1205 -128.0357 122° Southeast 493 567 39,000  Level FlightAware Transoceanic
Sun 12:58:00 PM 41.0515 -127.8868 122° Southeast 493 567 39,000  Level FlightAware Transoceanic
Sun 12:59:00 PM 40.9823 -127.7382 122° Southeast 493 567 39,000  Level FlightAware Transoceanic
Sun 01:00:00 PM 40.9128 -127.5900 122° Southeast 493 567 39,000 -69 Level FlightAware Transoceanic
Sun 01:00:27 PM 40.8328 -127.4700 118° Southeast 503 579 38,900  Descending Oakland Center
Sun 01:01:00 PM 40.8433 -127.4420 122° Southeast 493 567 39,000 98 Climbing FlightAware Transoceanic
Sun 01:01:28 PM 40.7592 -127.3139 122° Southeast 503 579 39,000  Level Oakland Center
Sun 01:02:00 PM 40.7735 -127.2944 122° Southeast 493 567 39,000 -98 Level FlightAware Transoceanic
Sun 01:02:29 PM 40.6828 -127.1592 123° Southeast 504 580 38,900  Descending Oakland Center
Sun 01:03:00 PM 40.6333 -127.0000 118° Southeast 507 583 39,000 98 Climbing FlightAware Transoceanic
Sun 01:03:30 PM 40.6103 -127.0039 122° Southeast 502 578 39,000  Level Oakland Center
Sun 01:04:00 PM 40.5698 -126.8410 118° Southeast 507 583 39,000  Level FlightAware Transoceanic
Sun 01:04:32 PM 40.5428 -126.8431 119° Southeast 505 581 39,000  Level Oakland Center
Sun 01:05:00 PM 40.5060 -126.6823 118° Southeast 507 583 39,000  Level FlightAware Transoceanic
Sun 01:10:29 PM 40.0100 -126.0050 119° Southeast 39,000  Level FlightAware ADS-B
Sun 01:11:39 PM 39.9060 -125.8460 130° Southeast 492 566 39,000  Level FlightAware ADS-B
Sun 01:12:54 PM 39.7970 -125.6820 131° Southeast 491 565 39,000  Level FlightAware ADS-B
Sun 01:13:24 PM 39.7500 -125.6120 131° Southeast 492 566 39,000  Level FlightAware ADS-B
Sun 01:14:24 PM 39.6610 -125.4770 131° Southeast 492 566 39,000  Level FlightAware ADS-B
Sun 01:14:59 PM 39.6080 -125.3980 131° Southeast 494 568 39,000  Level FlightAware ADS-B
Sun 01:15:39 PM 39.5490 -125.3110 131° Southeast 495 570 39,000  Level FlightAware ADS-B
Sun 01:16:35 PM 39.4700 -125.1930 131° Southeast 496 571 39,000  Level FlightAware ADS-B
Sun 01:17:19 PM 39.3970 -125.0860 131° Southeast 492 566 39,000  Level FlightAware ADS-B
Sun 01:18:04 PM 39.3310 -124.9870 131° Southeast 496 571 39,000  Level FlightAware ADS-B
Sun 01:19:15 PM 39.2230 -124.8300 132° Southeast 497 572 39,000  Level FlightAware ADS-B
Sun 01:20:09 PM 39.1390 -124.7060 131° Southeast 496 571 39,000  Level FlightAware ADS-B
Sun 01:21:05 PM 39.0530 -124.5810 132° Southeast 498 573 39,000  Level FlightAware ADS-B
Sun 01:21:40 PM 39.0000 -124.5050 132° Southeast 498 573 39,000  Level FlightAware ADS-B
Sun 01:22:09 PM 38.9570 -124.4410 131° Southeast 498 573 39,000  Level FlightAware ADS-B
Sun 01:22:49 PM 38.8940 -124.3510 132° Southeast 499 574 39,000  Level FlightAware ADS-B
Sun 01:23:33 PM 38.8280 -124.2550 131° Southeast 498 573 39,000  Level FlightAware ADS-B
Sun 01:24:10 PM 38.7710 -124.1740 132° Southeast 497 572 39,000  Level FlightAware ADS-B
Sun 01:24:58 PM 38.6970 -124.0680 132° Southeast 497 572 39,000  Level FlightAware ADS-B
Sun 01:25:41 PM 38.6310 -123.9730 132° Southeast 499 574 39,000  Level FlightAware ADS-B
Sun 01:26:39 PM 38.5410 -123.8460 132° Southeast 499 574 39,000  Level FlightAware ADS-B
Sun 01:27:11 PM 38.4920 -123.7760 132° Southeast 499 574 39,000  Level FlightAware ADS-B
Sun 01:27:50 PM 38.4310 -123.6900 132° Southeast 501 577 39,000  Level FlightAware ADS-B
Sun 01:28:25 PM 38.3770 -123.6130 132° Southeast 502 578 39,000  Level FlightAware ADS-B
Sun 01:29:04 PM 38.3160 -123.5280 132° Southeast 504 580 39,000  Level FlightAware ADS-B
Sun 01:29:37 PM 38.2660 -123.4580 132° Southeast 502 578 39,000  Level FlightAware ADS-B
Sun 01:30:16 PM 38.2100 -123.3790 132° Southeast 501 577 39,000  Level FlightAware ADS-B
Sun 01:30:59 PM 38.1380 -123.2780 132° Southeast 503 579 39,000  Level FlightAware ADS-B
Sun 01:31:34 PM 38.0840 -123.2030 132° Southeast 504 580 39,000  Level FlightAware ADS-B
Sun 01:32:23 PM 38.0060 -123.0940 132° Southeast 504 580 39,000  Level FlightAware ADS-B
Sun 01:32:52 PM 37.9630 -123.0350 133° Southeast 506 582 39,000  Level FlightAware ADS-B
Sun 01:33:26 PM 37.9060 -122.9560 132° Southeast 508 585 39,000  Level FlightAware ADS-B
Sun 01:33:59 PM 37.8560 -122.8870 133° Southeast 507 583 39,000  Level FlightAware ADS-B
Sun 01:34:34 PM 37.7980 -122.8070 133° Southeast 504 580 39,000  Level FlightAware ADS-B
Sun 01:35:08 PM 37.7450 -122.7350 133° Southeast 503 579 39,000  Level FlightAware ADS-B
Sun 01:35:45 PM 37.6910 -122.6600 132° Southeast 501 577 39,000  Level FlightAware ADS-B
Sun 01:36:22 PM 37.6290 -122.5750 133° Southeast 498 573 39,000  Level FlightAware ADS-B
Sun 01:37:03 PM 37.5660 -122.4900 133° Southeast 498 573 39,000  Level FlightAware ADS-B
Sun 01:37:32 PM 37.5220 -122.4300 133° Southeast 498 573 39,000  Level FlightAware ADS-B
Sun 01:38:11 PM 37.4590 -122.3440 133° Southeast 499 574 39,000  Level FlightAware ADS-B
Sun 01:38:54 PM 37.3930 -122.2560 133° Southeast 498 573 39,000  Level FlightAware ADS-B
Sun 01:39:51 PM 37.3006 -122.1310 133° Southeast 497 572 39,000  Level FlightAware ADS-B
Sun 01:40:22 PM 37.2531 -122.0670 133° Southeast 494 568 39,000  Level FlightAware ADS-B
Sun 01:40:53 PM 37.2047 -122.0020 133° Southeast 493 567 39,000  Level FlightAware ADS-B
Sun 01:41:24 PM 37.1555 -121.9360 133° Southeast 492 566 39,000  Level FlightAware ADS-B
Sun 01:42:09 PM 37.0859 -121.8430 133° Southeast 494 568 39,000  Level FlightAware ADS-B
Sun 01:42:40 PM 37.0369 -121.7780 133° Southeast 498 573 39,000  Level FlightAware ADS-B
Sun 01:43:14 PM 36.9845 -121.7080 133° Southeast 499 574 39,000  Level FlightAware ADS-B
Sun 01:43:46 PM 36.9335 -121.6410 134° Southeast 499 574 39,000  Level FlightAware ADS-B
Sun 01:44:31 PM 36.8614 -121.5450 133° Southeast 499 574 39,000  Level FlightAware ADS-B
Sun 01:45:07 PM 36.8043 -121.4700 134° Southeast 500 575 39,000  Level FlightAware ADS-B
Sun 01:45:38 PM 36.7549 -121.4050 133° Southeast 501 577 39,000  Level FlightAware ADS-B
Sun 01:46:10 PM 36.7049 -121.3390 133° Southeast 501 577 39,000  Level FlightAware ADS-B
Sun 01:47:22 PM 36.5891 -121.1870 133° Southeast 500 575 39,000  Level FlightAware ADS-B
Sun 01:48:33 PM 36.4780 -121.0430 134° Southeast 502 578 39,000  Level FlightAware ADS-B
Sun 01:48:58 PM 36.4390 -120.9910 133° Southeast 502 578 39,000  Level FlightAware ADS-B
Sun 01:49:51 PM 36.3520 -120.8820 135° Southeast 502 578 39,000  Level FlightAware ADS-B
Sun 01:50:29 PM 36.2880 -120.8080 137° Southeast 502 578 39,000  Level FlightAware ADS-B
Sun 01:51:15 PM 36.2080 -120.7160 137° Southeast 502 578 39,000  Level FlightAware ADS-B
Sun 01:51:50 PM 36.1540 -120.6540 137° Southeast 503 579 39,000  Level FlightAware ADS-B
Sun 01:52:45 PM 36.0550 -120.5410 137° Southeast 504 580 39,000  Level FlightAware ADS-B
Sun 01:53:42 PM 35.9560 -120.4280 137° Southeast 506 582 39,000  Level FlightAware ADS-B
Sun 01:54:45 PM 35.8480 -120.3050 137° Southeast 508 585 39,000  Level FlightAware ADS-B
Sun 01:55:43 PM 35.7470 -120.1910 137° Southeast 510 587 39,000 -450 Level FlightAware ADS-B
Sun 01:56:45 PM 35.6380 -120.0690 138° Southeast 510 587 38,100 -1,358 Descending FlightAware ADS-B
Sun 01:57:29 PM 35.5620 -119.9830 137° Southeast 505 581 36,600 -2,051 Descending FlightAware ADS-B
Sun 01:58:04 PM 35.5030 -119.9170 138° Southeast 502 578 35,400 -1,826 Descending FlightAware ADS-B
Sun 01:58:38 PM 35.4460 -119.8530 138° Southeast 493 567 34,500 -1,895 Descending FlightAware ADS-B
Sun 01:59:39 PM 35.3410 -119.7350 137° Southeast 491 565 32,400 -1,898 Descending FlightAware ADS-B
Sun 02:00:16 PM 35.2790 -119.6670 138° Southeast 482 555 31,400 -1,590 Descending FlightAware ADS-B
Sun 02:01:36 PM 35.1400 -119.5420 144° Southeast 460 529 29,300 -1,655 Descending FlightAware ADS-B
Sun 02:02:12 PM 35.0760 -119.4880 145° Southeast 445 512 28,200 -1,644 Descending FlightAware ADS-B
Sun 02:02:49 PM 35.0160 -119.4370 145° Southeast 435 501 27,300 -1,568 Descending FlightAware ADS-B
Sun 02:03:40 PM 34.9330 -119.3670 145° Southeast 415 478 25,900 -1,605 Descending FlightAware ADS-B
Sun 02:04:15 PM 34.8780 -119.3200 145° Southeast 403 464 25,000 -1,500 Descending FlightAware ADS-B
Sun 02:04:48 PM 34.8290 -119.2780 145° Southeast 394 453 24,200 -1,543 Descending FlightAware ADS-B
Sun 02:05:25 PM 34.7740 -119.2320 146° Southeast 385 443 23,200 -1,615 Descending FlightAware ADS-B
Sun 02:06:06 PM 34.7130 -119.1800 145° Southeast 384 442 22,100 -1,595 Descending FlightAware ADS-B
Sun 02:06:44 PM 34.6580 -119.1340 145° Southeast 379 436 21,100 -1,579 Descending FlightAware ADS-B
Sun 02:07:22 PM 34.6050 -119.0890 145° Southeast 369 425 20,100 -1,622 Descending FlightAware ADS-B
Sun 02:07:58 PM 34.5540 -119.0460 145° Southeast 365 420 19,100 -1,726 Descending FlightAware ADS-B
Sun 02:08:35 PM 34.5030 -119.0030 145° Southeast 360 414 18,000 -1,680 Descending FlightAware ADS-B
Sun 02:09:38 PM 34.4160 -118.9310 146° Southeast 373 429 16,300 -1,673 Descending FlightAware ADS-B
Sun 02:10:19 PM 34.3560 -118.8850 148° Southeast 368 423 15,100 -1,622 Descending FlightAware ADS-B
Sun 02:10:52 PM 34.3080 -118.8630 159° South 366 421 14,300 -1,535 Descending FlightAware ADS-B
Sun 02:11:02 PM 34.2870 -118.8560 165° South 366 421 14,000 -1,636 Descending FlightAware ADS-B
Sun 02:11:47 PM 34.2210 -118.8310 163° South 363 418 12,800 -1,377 Descending FlightAware ADS-B
Sun 02:13:04 PM 34.0970 -118.7860 163° South 318 366 11,200 -1,036 Descending FlightAware ADS-B
Sun 02:13:37 PM 34.0550 -118.7640 157° South 290 334 10,900 -737 Descending FlightAware ADS-B
Sun 02:14:01 PM 34.0380 -118.7330 123° Southeast 284 327 10,500 -1,034 Descending FlightAware ADS-B
Sun 02:14:35 PM 34.0310 -118.6800 99° East 278 320 9,900 -762 Descending FlightAware ADS-B
Sun 02:15:04 PM 34.0270 -118.6360 96° East 277 319 9,700 -831 Descending FlightAware ADS-B
Sun 02:15:40 PM 34.0220 -118.5800 96° East 275 316 9,000 -1,200 Descending FlightAware ADS-B
Sun 02:16:19 PM 34.0160 -118.5210 97° East 275 316 8,200 -1,167 Descending FlightAware ADS-B
Sun 02:16:52 PM 34.0120 -118.4710 95° East 273 314 7,600 -938 Descending FlightAware ADS-B
Sun 02:17:23 PM 34.0130 -118.4290 88° East 268 308 7,200 -885 Descending FlightAware ADS-B
Sun 02:17:53 PM 34.0180 -118.3840 82° East 262 302 6,700 -779 Descending FlightAware ADS-B
Sun 02:18:40 PM 34.0240 -118.3160 84° East 235 270 6,200 -791 Descending FlightAware ADS-B
Sun 02:19:24 PM 34.0300 -118.2610 82° East 222 255 5,500 -975 Descending FlightAware ADS-B
Sun 02:20:00 PM 34.0350 -118.2180 82° East 217 250 4,900 -923 Descending FlightAware ADS-B
Sun 02:20:42 PM 34.0250 -118.1800 108° East 201 231 4,300 -1,054 Descending FlightAware ADS-B
Sun 02:21:14 PM 33.9950 -118.1880 192° South 203 234 3,600 -1,161 Descending FlightAware ADS-B
Sun 02:21:44 PM 33.9790 -118.2120 231° Southwest 200 230 3,100 -1,075 Descending FlightAware ADS-B
Sun 02:22:21 PM 33.9670 -118.2530 251° West 200 230 2,400 -1,103 Descending FlightAware ADS-B
Sun 02:23:11 PM 33.9620 -118.3060 264° West 181 208 1,500 -933 Descending FlightAware ADS-B
Sun 02:23:51 PM 33.9580 -118.3420 262° West 152 175 1,000 -789 Descending FlightAware ADS-B
Sun 02:24:27 PM 33.9550 -118.3740 264° West 154 177 500 -593 Descending FlightAware ADS-B
Sun 02:25:12 PM 33.9510 -118.4080 262° West 152 175 200 -400 Descending FlightAware ADS-B

Login

Don't have an account? Register now (free) for customized features, flight alerts, and more!